Time;durP1;ratioP1;P1;durP2;ratioP2;P2;SDS_P1;SDS_P2;PMS_P1;PMS_P2;Temp;Humidity;BMP_temperature;BMP_pressure;BME280_temperature;BME280_humidity;BME280_pressure;Samples;Min_cycle;Max_cycle;Signal;HPM_P1;HPM_P2
2023/07/09 00:01:51;;;;;;;5.57;3.40;;;;;;;;;;4399589;32;316798;-82
2023/07/09 00:04:18;;;;;;;3.90;3.05;;;;;;;;;;4386306;32;316469;-85
2023/07/09 00:06:46;;;;;;;7.78;2.95;;;;;;;;;;4399320;32;317062;-82
2023/07/09 00:09:15;;;;;;;6.37;3.08;;;;;;;;;;4400074;32;316503;-81
2023/07/09 00:11:44;;;;;;;3.60;2.90;;;;;;;;;;4387484;32;416480;-81
2023/07/09 00:14:11;;;;;;;6.07;3.22;;;;;;;;;;4386753;32;317010;-81
2023/07/09 00:16:39;;;;;;;5.12;3.28;;;;;;;;;;4390249;32;317438;-82
2023/07/09 00:19:15;;;;;;;3.85;2.87;;;;;;;;;;4399018;32;317783;-81
2023/07/09 00:21:45;;;;;;;8.38;3.45;;;;;;;;;;4386065;32;416603;-82
2023/07/09 00:24:12;;;;;;;5.93;3.80;;;;;;;;;;4400236;32;316290;-86
2023/07/09 00:26:40;;;;;;;4.57;3.22;;;;;;;;;;4390175;32;316327;-81
2023/07/09 00:29:09;;;;;;;3.83;2.62;;;;;;;;;;4400356;32;317114;-82
2023/07/09 00:31:40;;;;;;;5.78;3.50;;;;;;;;;;4389319;32;317123;-82
2023/07/09 00:34:11;;;;;;;5.85;3.85;;;;;;;;;;4398773;32;316496;-82
2023/07/09 00:36:38;;;;;;;6.82;3.50;;;;;;;;;;4388286;32;341201;-82
2023/07/09 00:39:05;;;;;;;5.18;3.10;;;;;;;;;;4398694;32;316751;-82
2023/07/09 00:41:34;;;;;;;5.03;3.30;;;;;;;;;;4388851;32;316369;-88
2023/07/09 00:44:28;;;;;;;4.12;2.83;;;;;;;;;;4391096;32;317106;-82
2023/07/09 00:47:24;;;;;;;6.65;3.40;;;;;;;;;;4385526;32;416317;-83
2023/07/09 00:50:09;;;;;;;7.55;3.25;;;;;;;;;;4358680;32;417905;-86
2023/07/09 00:52:45;;;;;;;11.80;3.70;;;;;;;;;;4389862;32;316690;-86
2023/07/09 00:55:16;;;;;;;8.80;3.45;;;;;;;;;;4399547;32;318907;-86
2023/07/09 00:57:55;;;;;;;6.78;3.80;;;;;;;;;;4386836;32;415990;-87
2023/07/09 01:00:27;;;;;;;7.55;3.20;;;;;;;;;;4388691;32;316637;-87
2023/07/09 01:02:55;;;;;;;6.03;3.60;;;;;;;;;;4398789;32;316573;-86
2023/07/09 01:05:27;;;;;;;4.55;3.00;;;;;;;;;;4380800;32;317031;-85
2023/07/09 01:07:54;;;;;;;5.93;3.28;;;;;;;;;;4399978;32;316339;-86
2023/07/09 01:10:21;;;;;;;7.53;2.97;;;;;;;;;;4389325;32;316422;-85
2023/07/09 01:12:50;;;;;;;3.97;3.17;;;;;;;;;;4399557;32;317553;-85
2023/07/09 01:15:17;;;;;;;8.98;3.97;;;;;;;;;;4388273;32;317268;-88
2023/07/09 01:17:44;;;;;;;9.45;3.75;;;;;;;;;;4398094;32;317131;-86
2023/07/09 01:20:20;;;;;;;8.35;3.47;;;;;;;;;;4384575;32;317109;-86
2023/07/09 01:22:50;;;;;;;6.57;3.87;;;;;;;;;;4386438;32;415990;-86
2023/07/09 01:25:17;;;;;;;5.03;3.60;;;;;;;;;;4375433;32;316743;-86
2023/07/09 01:27:46;;;;;;;6.60;3.72;;;;;;;;;;4399323;32;317178;-84
2023/07/09 01:30:17;;;;;;;6.53;3.53;;;;;;;;;;4399356;32;316625;-82
2023/07/09 01:32:45;;;;;;;11.70;4.07;;;;;;;;;;4373379;32;389055;-86
2023/07/09 01:35:14;;;;;;;5.82;3.50;;;;;;;;;;4397855;32;318205;-83
2023/07/09 01:37:42;;;;;;;6.55;3.67;;;;;;;;;;4385174;32;416725;-87
2023/07/09 01:40:14;;;;;;;5.43;3.83;;;;;;;;;;4397651;32;317546;-87
2023/07/09 01:42:41;;;;;;;12.95;4.32;;;;;;;;;;4381760;32;317340;-86
2023/07/09 01:45:10;;;;;;;8.02;3.37;;;;;;;;;;4399030;32;317946;-86
2023/07/09 01:47:37;;;;;;;5.75;3.87;;;;;;;;;;4388958;32;316690;-81
2023/07/09 01:50:04;;;;;;;6.97;4.30;;;;;;;;;;4398882;32;317393;-82
2023/07/09 01:52:33;;;;;;;11.07;3.80;;;;;;;;;;4387552;32;317289;-81
2023/07/09 01:55:00;;;;;;;3.58;3.28;;;;;;;;;;4398137;32;318542;-82
2023/07/09 01:57:33;;;;;;;8.20;4.33;;;;;;;;;;4387668;32;317068;-81
2023/07/09 02:00:03;;;;;;;6.20;3.70;;;;;;;;;;4397449;32;316451;-82
2023/07/09 02:02:32;;;;;;;5.25;3.75;;;;;;;;;;4379898;32;316631;-82
2023/07/09 02:04:59;;;;;;;5.00;3.10;;;;;;;;;;4396550;32;317211;-81
2023/07/09 02:07:26;;;;;;;4.75;3.30;;;;;;;;;;4388950;32;316870;-81
2023/07/09 02:09:53;;;;;;;10.27;4.10;;;;;;;;;;4398476;32;317067;-81
2023/07/09 02:12:20;;;;;;;4.45;2.95;;;;;;;;;;4388741;32;319045;-81
2023/07/09 02:14:48;;;;;;;4.32;2.83;;;;;;;;;;4398393;32;317113;-79
2023/07/09 02:17:15;;;;;;;5.72;3.90;;;;;;;;;;4398278;32;316593;-80
2023/07/09 02:19:42;;;;;;;7.00;3.37;;;;;;;;;;4384400;32;417693;-80
2023/07/09 02:22:09;;;;;;;11.30;3.87;;;;;;;;;;4398486;32;316923;-80
2023/07/09 02:24:36;;;;;;;7.40;3.53;;;;;;;;;;4386998;32;330663;-81
2023/07/09 02:27:06;;;;;;;7.97;4.62;;;;;;;;;;4399193;32;317040;-83
2023/07/09 02:29:34;;;;;;;7.13;4.00;;;;;;;;;;4386702;32;336156;-81
2023/07/09 02:32:02;;;;;;;6.70;3.72;;;;;;;;;;4398541;32;316460;-80
2023/07/09 02:34:30;;;;;;;8.55;3.97;;;;;;;;;;4387252;32;316978;-80
2023/07/09 02:36:59;;;;;;;4.82;3.92;;;;;;;;;;4398190;32;317235;-81
2023/07/09 02:39:26;;;;;;;13.18;3.75;;;;;;;;;;4388109;32;316576;-78
2023/07/09 02:41:57;;;;;;;4.35;2.90;;;;;;;;;;4397537;32;317970;-86
2023/07/09 02:44:24;;;;;;;12.40;5.85;;;;;;;;;;4389380;32;316644;-88
2023/07/09 02:46:51;;;;;;;7.05;3.95;;;;;;;;;;4384771;32;318358;-86
2023/07/09 02:49:19;;;;;;;6.05;3.75;;;;;;;;;;4387729;32;317188;-84
2023/07/09 02:51:46;;;;;;;8.38;3.92;;;;;;;;;;4392431;32;317356;-82
2023/07/09 02:54:13;;;;;;;8.05;3.87;;;;;;;;;;4397902;32;316647;-83
2023/07/09 02:56:39;;;;;;;12.15;3.65;;;;;;;;;;4385172;32;317064;-85
2023/07/09 02:59:06;;;;;;;6.22;3.70;;;;;;;;;;4398298;32;318228;-81
2023/07/09 03:01:34;;;;;;;8.70;3.47;;;;;;;;;;4380433;32;316664;-82
2023/07/09 03:04:02;;;;;;;6.55;4.22;;;;;;;;;;4397663;32;316674;-82
2023/07/09 03:06:33;;;;;;;5.57;3.20;;;;;;;;;;4387308;32;318111;-82
2023/07/09 03:09:00;;;;;;;7.05;4.22;;;;;;;;;;4396851;32;317310;-83
2023/07/09 03:11:31;;;;;;;5.57;3.47;;;;;;;;;;4387255;32;332289;-81
2023/07/09 03:13:58;;;;;;;6.93;3.70;;;;;;;;;;4396657;32;316631;-81
2023/07/09 03:16:27;;;;;;;7.40;3.80;;;;;;;;;;4388047;32;316765;-82
2023/07/09 03:18:54;;;;;;;11.60;3.60;;;;;;;;;;4397861;32;316622;-81
2023/07/09 03:21:21;;;;;;;7.90;3.62;;;;;;;;;;4387954;32;318445;-82
2023/07/09 03:23:49;;;;;;;6.72;3.22;;;;;;;;;;4397924;32;316672;-83
2023/07/09 03:26:16;;;;;;;5.57;3.22;;;;;;;;;;4387965;32;316694;-83
2023/07/09 03:28:42;;;;;;;6.90;3.10;;;;;;;;;;4399643;32;316782;-81
2023/07/09 03:31:09;;;;;;;7.43;3.95;;;;;;;;;;4398802;32;349891;-83
2023/07/09 03:33:36;;;;;;;10.90;4.28;;;;;;;;;;4390699;32;317435;-81
2023/07/09 03:36:04;;;;;;;11.30;4.30;;;;;;;;;;4401181;32;317815;-81
2023/07/09 03:38:31;;;;;;;10.18;4.47;;;;;;;;;;4381142;32;317579;-87
2023/07/09 03:40:59;;;;;;;7.95;3.47;;;;;;;;;;4397928;32;317774;-84
2023/07/09 03:43:26;;;;;;;10.00;4.22;;;;;;;;;;4387778;32;317524;-84
2023/07/09 03:45:53;;;;;;;7.10;3.80;;;;;;;;;;4396993;32;318278;-83
2023/07/09 03:48:21;;;;;;;5.70;3.53;;;;;;;;;;4387423;32;317411;-84
2023/07/09 03:50:49;;;;;;;13.60;4.82;;;;;;;;;;4396626;32;317450;-84
2023/07/09 03:53:16;;;;;;;12.57;4.15;;;;;;;;;;4387429;32;318642;-86
2023/07/09 03:55:45;;;;;;;9.52;3.40;;;;;;;;;;4393396;32;317671;-82
2023/07/09 03:58:13;;;;;;;7.62;3.60;;;;;;;;;;4397662;32;317487;-82
2023/07/09 04:00:40;;;;;;;12.48;3.87;;;;;;;;;;4389742;32;317207;-82
2023/07/09 04:03:08;;;;;;;4.97;3.72;;;;;;;;;;4399721;32;318289;-82
2023/07/09 04:05:35;;;;;;;8.25;4.60;;;;;;;;;;4389891;32;317100;-82
2023/07/09 04:08:02;;;;;;;14.68;4.25;;;;;;;;;;4399739;32;317809;-82
2023/07/09 04:10:32;;;;;;;9.73;4.85;;;;;;;;;;4388129;32;317620;-81
2023/07/09 04:12:59;;;;;;;10.10;4.55;;;;;;;;;;4400144;32;318492;-81
2023/07/09 04:15:27;;;;;;;8.68;5.30;;;;;;;;;;4389961;32;317702;-82
2023/07/09 04:17:54;;;;;;;8.35;3.95;;;;;;;;;;4399349;32;344505;-81
2023/07/09 04:20:23;;;;;;;6.10;3.92;;;;;;;;;;4376853;32;316759;-83
2023/07/09 04:22:50;;;;;;;6.85;3.55;;;;;;;;;;4399112;32;316906;-81
2023/07/09 04:25:16;;;;;;;7.03;3.87;;;;;;;;;;4388816;32;317227;-84
2023/07/09 04:27:43;;;;;;;7.35;3.85;;;;;;;;;;4399245;32;316664;-81
2023/07/09 04:30:12;;;;;;;5.53;3.50;;;;;;;;;;4400347;32;317457;-81
2023/07/09 04:32:41;;;;;;;7.35;4.18;;;;;;;;;;4379614;32;317196;-82
2023/07/09 04:35:08;;;;;;;6.18;3.85;;;;;;;;;;4390606;32;316719;-81
2023/07/09 04:37:35;;;;;;;6.65;3.42;;;;;;;;;;4380140;32;340273;-81
2023/07/09 04:40:02;;;;;;;7.80;4.28;;;;;;;;;;4398725;32;317543;-81
2023/07/09 04:42:29;;;;;;;6.00;3.37;;;;;;;;;;4390094;32;317200;-82
2023/07/09 04:44:57;;;;;;;7.87;4.12;;;;;;;;;;4399677;32;316780;-81
2023/07/09 04:47:24;;;;;;;6.10;3.55;;;;;;;;;;4389485;32;316551;-81
2023/07/09 04:49:54;;;;;;;4.85;3.97;;;;;;;;;;4398620;32;317555;-81
2023/07/09 04:52:22;;;;;;;13.07;3.80;;;;;;;;;;4389964;32;317451;-81
2023/07/09 04:54:50;;;;;;;9.95;3.72;;;;;;;;;;4398374;32;317659;-81
2023/07/09 04:57:17;;;;;;;7.95;3.05;;;;;;;;;;4388658;32;317348;-82
2023/07/09 04:59:44;;;;;;;4.70;3.20;;;;;;;;;;4399652;32;316810;-81
2023/07/09 05:02:12;;;;;;;4.28;3.40;;;;;;;;;;4398752;32;317459;-81
2023/07/09 05:04:39;;;;;;;8.00;3.75;;;;;;;;;;4388736;32;317664;-81
2023/07/09 05:07:07;;;;;;;4.55;3.33;;;;;;;;;;4398514;32;316614;-81
2023/07/09 05:09:34;;;;;;;7.90;3.83;;;;;;;;;;4389474;32;316752;-81
2023/07/09 05:12:01;;;;;;;10.38;3.97;;;;;;;;;;4398550;32;317044;-81
2023/07/09 05:14:28;;;;;;;7.30;3.60;;;;;;;;;;4386732;32;318890;-81
2023/07/09 05:16:55;;;;;;;8.68;4.45;;;;;;;;;;4397519;32;334922;-81
2023/07/09 05:19:22;;;;;;;4.17;3.30;;;;;;;;;;4387418;32;337848;-81
2023/07/09 05:21:50;;;;;;;10.02;3.67;;;;;;;;;;4399158;32;317400;-81
2023/07/09 05:24:18;;;;;;;9.77;4.35;;;;;;;;;;4388064;32;346620;-82
2023/07/09 05:26:45;;;;;;;10.88;3.83;;;;;;;;;;4398336;32;342313;-81
2023/07/09 05:29:12;;;;;;;8.07;4.40;;;;;;;;;;4399354;32;317593;-81
2023/07/09 05:31:39;;;;;;;9.60;3.78;;;;;;;;;;4387980;32;317384;-82
2023/07/09 05:34:08;;;;;;;11.07;5.20;;;;;;;;;;4389959;32;317339;-81
2023/07/09 05:36:35;;;;;;;12.02;5.05;;;;;;;;;;4387101;32;318426;-81
2023/07/09 05:39:02;;;;;;;6.90;3.97;;;;;;;;;;4398040;32;317895;-81
2023/07/09 05:41:30;;;;;;;6.45;4.07;;;;;;;;;;4388103;32;317441;-81
2023/07/09 05:43:57;;;;;;;8.50;4.55;;;;;;;;;;4399068;32;317603;-82
2023/07/09 05:46:24;;;;;;;11.80;5.25;;;;;;;;;;4389103;32;317225;-81
2023/07/09 05:48:51;;;;;;;5.60;3.83;;;;;;;;;;4398593;32;317907;-81
2023/07/09 05:51:18;;;;;;;12.98;4.43;;;;;;;;;;4382647;32;317602;-81
2023/07/09 05:53:45;;;;;;;11.32;4.12;;;;;;;;;;4398309;32;317578;-81
2023/07/09 05:56:11;;;;;;;8.65;4.65;;;;;;;;;;4396015;32;317750;-81
2023/07/09 05:58:39;;;;;;;5.60;4.03;;;;;;;;;;4388092;32;316923;-81
2023/07/09 06:01:07;;;;;;;5.70;3.35;;;;;;;;;;4398418;32;316561;-81
2023/07/09 06:03:33;;;;;;;5.10;4.03;;;;;;;;;;4387808;32;316559;-81
2023/07/09 06:06:00;;;;;;;7.55;5.25;;;;;;;;;;4398609;32;317454;-81
2023/07/09 06:08:30;;;;;;;9.85;5.25;;;;;;;;;;4388586;32;317276;-81
2023/07/09 06:11:01;;;;;;;5.28;3.95;;;;;;;;;;4395934;32;316628;-81
2023/07/09 06:13:30;;;;;;;12.25;5.32;;;;;;;;;;4380314;32;316723;-81
2023/07/09 06:15:59;;;;;;;7.12;3.95;;;;;;;;;;4397169;32;317740;-81
2023/07/09 06:18:29;;;;;;;10.63;5.12;;;;;;;;;;4388770;32;316937;-81
2023/07/09 06:20:58;;;;;;;6.25;4.00;;;;;;;;;;4398337;32;318744;-80
2023/07/09 06:23:25;;;;;;;7.85;3.85;;;;;;;;;;4387275;32;318348;-81
2023/07/09 06:25:52;;;;;;;10.80;4.60;;;;;;;;;;4397112;32;317609;-81
2023/07/09 06:28:22;;;;;;;18.45;4.82;;;;;;;;;;4389014;32;317566;-83
2023/07/09 06:30:49;;;;;;;8.30;4.80;;;;;;;;;;4398040;32;318335;-81
2023/07/09 06:33:19;;;;;;;7.47;4.65;;;;;;;;;;4386201;32;359716;-82
2023/07/09 06:35:51;;;;;;;6.82;4.68;;;;;;;;;;4398101;32;316631;-81
2023/07/09 06:38:21;;;;;;;9.63;5.60;;;;;;;;;;4386990;32;317418;-81
2023/07/09 06:40:47;;;;;;;6.82;4.65;;;;;;;;;;4397134;32;317230;-81
2023/07/09 06:43:14;;;;;;;8.82;4.68;;;;;;;;;;4382706;32;316727;-81
2023/07/09 06:45:49;;;;;;;9.10;3.95;;;;;;;;;;4385218;32;417897;-81
2023/07/09 06:48:17;;;;;;;8.98;4.35;;;;;;;;;;4397956;32;317136;-81
2023/07/09 06:50:44;;;;;;;7.50;4.60;;;;;;;;;;4385140;32;416850;-81
2023/07/09 06:53:11;;;;;;;10.15;3.83;;;;;;;;;;4397842;32;317344;-81
2023/07/09 06:55:38;;;;;;;7.78;4.78;;;;;;;;;;4386446;32;318290;-81
2023/07/09 06:58:05;;;;;;;9.73;4.53;;;;;;;;;;4391447;32;317627;-81
2023/07/09 07:00:34;;;;;;;8.20;4.70;;;;;;;;;;4387859;32;316719;-81
2023/07/09 07:03:00;;;;;;;9.48;4.22;;;;;;;;;;4395329;32;357419;-81
2023/07/09 07:05:28;;;;;;;9.07;4.78;;;;;;;;;;4388069;32;317941;-81
2023/07/09 07:07:55;;;;;;;6.00;4.05;;;;;;;;;;4398360;32;316745;-81
2023/07/09 07:10:22;;;;;;;5.37;3.67;;;;;;;;;;4388413;32;317442;-81
2023/07/09 07:12:49;;;;;;;8.00;3.65;;;;;;;;;;4396939;32;317297;-81
2023/07/09 07:15:18;;;;;;;7.32;4.12;;;;;;;;;;4386737;32;317454;-84
2023/07/09 07:17:45;;;;;;;9.23;4.18;;;;;;;;;;4396511;32;332084;-81
2023/07/09 07:20:13;;;;;;;8.32;5.03;;;;;;;;;;4397511;32;316676;-81
2023/07/09 07:22:41;;;;;;;5.45;3.58;;;;;;;;;;4386398;32;316768;-81
2023/07/09 07:25:09;;;;;;;12.15;3.58;;;;;;;;;;4397317;32;317312;-81
2023/07/09 07:27:37;;;;;;;8.52;4.25;;;;;;;;;;4387960;32;318726;-81
2023/07/09 07:30:08;;;;;;;7.20;3.87;;;;;;;;;;4396527;32;316671;-81
2023/07/09 07:32:36;;;;;;;3.85;3.40;;;;;;;;;;4387786;32;316656;-81
2023/07/09 07:35:02;;;;;;;6.00;3.40;;;;;;;;;;4396262;32;317402;-81
2023/07/09 07:37:29;;;;;;;6.47;3.58;;;;;;;;;;4387599;32;317399;-81
2023/07/09 07:39:57;;;;;;;6.60;3.40;;;;;;;;;;4396108;32;316903;-81
2023/07/09 07:42:24;;;;;;;10.52;4.00;;;;;;;;;;4386793;32;317196;-81
2023/07/09 07:44:52;;;;;;;4.95;2.92;;;;;;;;;;4396652;32;318714;-81
2023/07/09 07:47:18;;;;;;;4.25;2.85;;;;;;;;;;4386402;32;361521;-81
2023/07/09 07:49:45;;;;;;;8.75;3.03;;;;;;;;;;4397726;32;316727;-81
2023/07/09 07:52:12;;;;;;;4.95;2.95;;;;;;;;;;4397488;32;316500;-81
2023/07/09 07:54:38;;;;;;;8.35;3.55;;;;;;;;;;4386312;32;317767;-81
2023/07/09 07:57:08;;;;;;;10.65;2.95;;;;;;;;;;4395847;32;316511;-82
2023/07/09 07:59:35;;;;;;;5.35;3.62;;;;;;;;;;4387371;32;318063;-81
2023/07/09 08:02:02;;;;;;;4.35;3.03;;;;;;;;;;4396203;32;316773;-81
2023/07/09 08:04:29;;;;;;;3.45;2.90;;;;;;;;;;4386890;32;316803;-84
2023/07/09 08:06:57;;;;;;;8.02;3.00;;;;;;;;;;4397720;32;316526;-80
2023/07/09 08:09:24;;;;;;;5.82;3.15;;;;;;;;;;4387596;32;317126;-81
2023/07/09 08:11:52;;;;;;;7.20;3.22;;;;;;;;;;4396495;32;316716;-80
2023/07/09 08:14:20;;;;;;;5.40;3.03;;;;;;;;;;4389333;32;317214;-81
2023/07/09 08:16:47;;;;;;;3.53;2.47;;;;;;;;;;4400104;32;316606;-81
2023/07/09 08:19:14;;;;;;;3.10;2.37;;;;;;;;;;4400331;32;317194;-81
2023/07/09 08:21:40;;;;;;;11.27;3.12;;;;;;;;;;4386110;32;418348;-81
2023/07/09 08:24:07;;;;;;;3.05;2.40;;;;;;;;;;4385953;32;317887;-80
2023/07/09 08:26:34;;;;;;;5.05;2.67;;;;;;;;;;4389765;32;317163;-81
2023/07/09 08:29:01;;;;;;;4.28;2.70;;;;;;;;;;4399281;32;316529;-80
2023/07/09 08:31:29;;;;;;;6.47;3.47;;;;;;;;;;4388855;32;317324;-80
2023/07/09 08:33:56;;;;;;;5.95;2.55;;;;;;;;;;4398979;32;316933;-81
2023/07/09 08:36:23;;;;;;;8.30;2.70;;;;;;;;;;4389880;32;316690;-81
2023/07/09 08:38:49;;;;;;;7.00;2.55;;;;;;;;;;4399579;32;317157;-80
2023/07/09 08:41:26;;;;;;;3.05;2.55;;;;;;;;;;4390162;32;317643;-82
2023/07/09 08:44:04;;;;;;;3.85;2.58;;;;;;;;;;4399104;32;317588;-81
2023/07/09 08:46:43;;;;;;;5.87;2.90;;;;;;;;;;4389940;32;317261;-81
2023/07/09 08:49:22;;;;;;;13.23;2.80;;;;;;;;;;4398397;32;316848;-81
2023/07/09 08:51:50;;;;;;;8.10;3.03;;;;;;;;;;4385662;32;419192;-81
2023/07/09 08:54:28;;;;;;;4.90;2.65;;;;;;;;;;4389364;32;316531;-80
2023/07/09 08:56:56;;;;;;;7.60;2.83;;;;;;;;;;4396949;32;316522;-81
2023/07/09 08:59:24;;;;;;;4.15;2.70;;;;;;;;;;4390234;32;317439;-82
2023/07/09 09:01:57;;;;;;;3.92;2.40;;;;;;;;;;4398482;32;317511;-82
2023/07/09 09:04:28;;;;;;;6.35;3.20;;;;;;;;;;4388870;32;317161;-82
2023/07/09 09:07:07;;;;;;;4.12;2.28;;;;;;;;;;4399624;32;317160;-81
2023/07/09 09:09:41;;;;;;;5.20;2.92;;;;;;;;;;4387662;32;316445;-81
2023/07/09 09:12:15;;;;;;;5.25;2.70;;;;;;;;;;4399384;32;317285;-81
2023/07/09 09:14:44;;;;;;;5.22;2.25;;;;;;;;;;4386589;32;418229;-81
2023/07/09 09:17:16;;;;;;;4.22;2.42;;;;;;;;;;4399302;32;317197;-81
2023/07/09 09:19:48;;;;;;;3.30;2.40;;;;;;;;;;4384007;32;416180;-83
2023/07/09 09:22:22;;;;;;;7.30;2.70;;;;;;;;;;4398649;32;317498;-81
2023/07/09 09:24:57;;;;;;;11.57;4.47;;;;;;;;;;4385067;32;416196;-81
2023/07/09 09:27:25;;;;;;;3.97;2.83;;;;;;;;;;4389166;32;318015;-81
2023/07/09 09:29:52;;;;;;;4.03;2.50;;;;;;;;;;4371864;32;316730;-81
2023/07/09 09:32:26;;;;;;;3.80;2.70;;;;;;;;;;4389038;32;316764;-82
2023/07/09 09:34:53;;;;;;;4.87;2.40;;;;;;;;;;4399283;32;316810;-81
2023/07/09 09:37:28;;;;;;;5.70;2.92;;;;;;;;;;4386843;32;317096;-82
2023/07/09 09:39:55;;;;;;;5.18;2.25;;;;;;;;;;4399127;32;317187;-81
2023/07/09 09:42:25;;;;;;;3.22;2.25;;;;;;;;;;4389240;32;317204;-83
2023/07/09 09:44:56;;;;;;;9.88;2.70;;;;;;;;;;4397950;32;317106;-81
2023/07/09 09:47:27;;;;;;;4.43;2.90;;;;;;;;;;4388968;32;316566;-82
2023/07/09 09:49:54;;;;;;;3.70;2.30;;;;;;;;;;4389191;32;316511;-81
2023/07/09 09:52:33;;;;;;;4.43;2.53;;;;;;;;;;4388290;32;317012;-81
2023/07/09 09:55:10;;;;;;;7.80;3.15;;;;;;;;;;4398743;32;316462;-81
2023/07/09 09:57:37;;;;;;;12.70;2.45;;;;;;;;;;4387421;32;317026;-82
2023/07/09 10:00:06;;;;;;;9.65;2.80;;;;;;;;;;4397901;32;318394;-82
2023/07/09 10:02:41;;;;;;;8.73;2.78;;;;;;;;;;4388055;32;317030;-82
2023/07/09 10:05:13;;;;;;;3.92;2.62;;;;;;;;;;4397754;32;317296;-81
2023/07/09 10:07:45;;;;;;;4.75;2.62;;;;;;;;;;4386880;32;316674;-82
2023/07/09 10:10:16;;;;;;;3.12;2.28;;;;;;;;;;4390371;32;316410;-81
2023/07/09 10:12:51;;;;;;;8.02;3.17;;;;;;;;;;4385798;32;416595;-81
2023/07/09 10:15:30;;;;;;;4.18;2.47;;;;;;;;;;4387130;32;316721;-82
2023/07/09 10:18:03;;;;;;;5.97;2.65;;;;;;;;;;4397601;32;334420;-81
2023/07/09 10:20:36;;;;;;;7.32;2.20;;;;;;;;;;4388797;32;316925;-81
2023/07/09 10:23:14;;;;;;;4.82;3.12;;;;;;;;;;4398152;32;317246;-82
2023/07/09 10:25:49;;;;;;;5.53;2.95;;;;;;;;;;4386122;32;317429;-83
2023/07/09 10:28:45;;;;;;;5.50;2.40;;;;;;;;;;4395419;32;316566;-84
2023/07/09 10:31:18;;;;;;;3.10;2.33;;;;;;;;;;4390125;32;316489;-82
2023/07/09 10:33:57;;;;;;;7.50;2.95;;;;;;;;;;4385734;32;417925;-83
2023/07/09 10:36:35;;;;;;;2.70;2.30;;;;;;;;;;4387824;32;317128;-84
2023/07/09 10:39:06;;;;;;;2.97;2.00;;;;;;;;;;4396826;32;316916;-82
2023/07/09 10:41:36;;;;;;;6.12;2.90;;;;;;;;;;4387297;32;317126;-82
2023/07/09 10:44:11;;;;;;;4.18;2.00;;;;;;;;;;4398488;32;316288;-82
2023/07/09 10:46:41;;;;;;;8.18;2.87;;;;;;;;;;4388339;32;316476;-82
2023/07/09 10:49:14;;;;;;;5.35;2.85;;;;;;;;;;4396977;32;316830;-82
2023/07/09 10:51:44;;;;;;;3.47;2.80;;;;;;;;;;4388043;32;317511;-82
2023/07/09 10:54:17;;;;;;;3.72;2.78;;;;;;;;;;4397353;32;316576;-82
2023/07/09 10:56:45;;;;;;;3.15;2.33;;;;;;;;;;4382332;32;416554;-82
2023/07/09 10:59:23;;;;;;;5.28;3.15;;;;;;;;;;4397043;32;322977;-82
2023/07/09 11:01:55;;;;;;;3.42;2.30;;;;;;;;;;4384086;32;416043;-82
2023/07/09 11:04:32;;;;;;;4.72;2.72;;;;;;;;;;4387225;32;317273;-82
2023/07/09 11:07:02;;;;;;;3.55;2.40;;;;;;;;;;4397994;32;316832;-82
2023/07/09 11:09:33;;;;;;;3.42;2.12;;;;;;;;;;4388258;32;317142;-83
2023/07/09 11:12:04;;;;;;;3.55;2.42;;;;;;;;;;4397222;32;317347;-82
2023/07/09 11:14:37;;;;;;;5.65;2.60;;;;;;;;;;4382023;32;316648;-82
2023/07/09 11:17:07;;;;;;;6.05;2.90;;;;;;;;;;4396434;32;315763;-82
2023/07/09 11:19:43;;;;;;;5.00;2.80;;;;;;;;;;4386851;32;316408;-82
2023/07/09 11:22:17;;;;;;;3.92;2.40;;;;;;;;;;4397274;32;316424;-81
2023/07/09 11:24:50;;;;;;;4.78;2.78;;;;;;;;;;4355781;32;416518;-82
2023/07/09 11:27:19;;;;;;;3.67;2.30;;;;;;;;;;4397085;32;316695;-82
2023/07/09 11:29:48;;;;;;;4.10;2.75;;;;;;;;;;4385493;32;418117;-82
2023/07/09 11:32:20;;;;;;;7.30;3.12;;;;;;;;;;4397616;32;316705;-84
2023/07/09 11:34:48;;;;;;;6.72;3.03;;;;;;;;;;4383488;32;417430;-81
2023/07/09 11:37:16;;;;;;;4.00;2.90;;;;;;;;;;4396221;32;317142;-81
2023/07/09 11:39:46;;;;;;;9.13;2.37;;;;;;;;;;4383847;32;418001;-82
2023/07/09 11:42:32;;;;;;;7.57;2.58;;;;;;;;;;4398079;32;316512;-83
2023/07/09 11:45:08;;;;;;;3.28;2.17;;;;;;;;;;4384136;32;416715;-82
2023/07/09 11:47:38;;;;;;;3.67;2.72;;;;;;;;;;4386442;32;317556;-82
2023/07/09 11:50:16;;;;;;;9.70;3.20;;;;;;;;;;4384221;32;317075;-82
2023/07/09 11:52:48;;;;;;;5.60;3.03;;;;;;;;;;4383435;32;418031;-82
2023/07/09 11:55:28;;;;;;;3.25;2.45;;;;;;;;;;4400667;32;317312;-82
2023/07/09 11:57:56;;;;;;;5.80;2.78;;;;;;;;;;4383412;32;417535;-82
2023/07/09 12:00:23;;;;;;;7.65;2.65;;;;;;;;;;4389485;32;317134;-82
2023/07/09 12:02:51;;;;;;;2.90;2.22;;;;;;;;;;4400116;32;316533;-82
2023/07/09 12:05:26;;;;;;;4.30;2.95;;;;;;;;;;4390432;32;316977;-84
2023/07/09 12:07:53;;;;;;;5.03;2.50;;;;;;;;;;4399858;32;316510;-82
2023/07/09 12:10:23;;;;;;;3.33;2.30;;;;;;;;;;4390313;32;316502;-83
2023/07/09 12:12:55;;;;;;;3.58;2.10;;;;;;;;;;4400313;32;318278;-82
2023/07/09 12:15:26;;;;;;;7.65;2.97;;;;;;;;;;4386211;32;325437;-82
2023/07/09 12:17:55;;;;;;;7.93;2.33;;;;;;;;;;4398672;32;317224;-82
2023/07/09 12:20:24;;;;;;;4.70;3.03;;;;;;;;;;4381176;32;351511;-82
2023/07/09 12:22:50;;;;;;;5.50;2.70;;;;;;;;;;4386684;32;316934;-82
2023/07/09 12:25:24;;;;;;;4.75;2.58;;;;;;;;;;4397879;32;317342;-84
2023/07/09 12:27:51;;;;;;;5.55;2.87;;;;;;;;;;4399955;32;317170;-82
2023/07/09 12:30:18;;;;;;;2.53;2.15;;;;;;;;;;4390270;32;316844;-82
2023/07/09 12:32:46;;;;;;;4.22;2.70;;;;;;;;;;4391391;32;316817;-82
2023/07/09 12:35:14;;;;;;;3.97;2.67;;;;;;;;;;4399039;32;316607;-82
2023/07/09 12:37:44;;;;;;;4.05;2.60;;;;;;;;;;4389453;32;316648;-82
2023/07/09 12:40:16;;;;;;;4.65;2.62;;;;;;;;;;4399987;32;316716;-82
2023/07/09 12:42:44;;;;;;;6.45;2.67;;;;;;;;;;4387276;32;417831;-82
2023/07/09 12:45:16;;;;;;;5.28;2.85;;;;;;;;;;4400156;32;317039;-82
2023/07/09 12:47:43;;;;;;;3.97;2.37;;;;;;;;;;4387093;32;416135;-82
2023/07/09 12:50:19;;;;;;;4.57;2.80;;;;;;;;;;4399949;32;317170;-82
2023/07/09 12:52:49;;;;;;;4.10;2.55;;;;;;;;;;4385002;32;416891;-82
2023/07/09 12:55:24;;;;;;;5.18;3.00;;;;;;;;;;4399709;32;316744;-82
2023/07/09 12:57:52;;;;;;;3.25;2.28;;;;;;;;;;4385934;32;416630;-82
2023/07/09 13:00:20;;;;;;;5.62;2.15;;;;;;;;;;4388901;32;318243;-83
2023/07/09 13:02:54;;;;;;;4.37;2.50;;;;;;;;;;4399145;32;316990;-82
2023/07/09 13:05:23;;;;;;;3.17;2.50;;;;;;;;;;4388877;32;317046;-83
2023/07/09 13:07:53;;;;;;;7.12;2.50;;;;;;;;;;4396898;32;344325;-82
2023/07/09 13:10:25;;;;;;;3.50;2.60;;;;;;;;;;4385954;32;322109;-83
2023/07/09 13:12:53;;;;;;;8.32;3.35;;;;;;;;;;4393395;32;317002;-82
2023/07/09 13:15:24;;;;;;;4.57;2.58;;;;;;;;;;4389522;32;317270;-82
2023/07/09 13:17:57;;;;;;;2.62;1.95;;;;;;;;;;4398985;32;317845;-83
2023/07/09 13:20:24;;;;;;;3.22;2.33;;;;;;;;;;4389676;32;317148;-83
2023/07/09 13:22:52;;;;;;;2.92;2.47;;;;;;;;;;4396118;32;316974;-83
2023/07/09 13:25:19;;;;;;;3.12;1.87;;;;;;;;;;4389542;32;317481;-83
2023/07/09 13:27:45;;;;;;;3.12;2.10;;;;;;;;;;4399349;32;316610;-82
2023/07/09 13:30:13;;;;;;;7.32;2.35;;;;;;;;;;4398267;32;317353;-82
2023/07/09 13:32:40;;;;;;;4.05;2.10;;;;;;;;;;4388248;32;317372;-84
2023/07/09 13:35:14;;;;;;;3.50;2.12;;;;;;;;;;4397195;32;317096;-82
2023/07/09 13:37:41;;;;;;;3.03;2.30;;;;;;;;;;4387541;32;317233;-82
2023/07/09 13:40:12;;;;;;;4.70;2.67;;;;;;;;;;4396823;32;356298;-82
2023/07/09 13:42:41;;;;;;;3.17;2.20;;;;;;;;;;4388243;32;353202;-82
2023/07/09 13:45:17;;;;;;;4.18;2.47;;;;;;;;;;4399332;32;316592;-82
2023/07/09 13:47:44;;;;;;;4.37;2.22;;;;;;;;;;4386076;32;416535;-82
2023/07/09 13:50:11;;;;;;;4.00;2.22;;;;;;;;;;4398679;32;316802;-82
2023/07/09 13:52:37;;;;;;;3.00;2.53;;;;;;;;;;4387274;32;317414;-82
2023/07/09 13:55:05;;;;;;;2.58;2.12;;;;;;;;;;4397835;32;316693;-82
2023/07/09 13:57:33;;;;;;;5.43;2.07;;;;;;;;;;4387354;32;325386;-82
2023/07/09 14:00:01;;;;;;;4.70;2.80;;;;;;;;;;4397101;32;345745;-82
2023/07/09 14:02:31;;;;;;;4.00;2.40;;;;;;;;;;4387476;32;317228;-83
2023/07/09 14:04:58;;;;;;;4.05;2.53;;;;;;;;;;4398966;32;317742;-82
2023/07/09 14:07:31;;;;;;;6.68;2.47;;;;;;;;;;4388364;32;317471;-82
2023/07/09 14:09:58;;;;;;;3.17;2.17;;;;;;;;;;4399020;32;317250;-82
2023/07/09 14:12:25;;;;;;;4.47;2.70;;;;;;;;;;4388712;32;317454;-82
2023/07/09 14:14:56;;;;;;;5.32;2.20;;;;;;;;;;4397301;32;317399;-82
2023/07/09 14:17:23;;;;;;;2.58;1.90;;;;;;;;;;4388541;32;316944;-82
2023/07/09 14:19:51;;;;;;;4.65;2.33;;;;;;;;;;4398580;32;316584;-82
2023/07/09 14:22:31;;;;;;;5.97;1.80;;;;;;;;;;4393105;32;317703;-84
2023/07/09 14:24:58;;;;;;;2.65;2.00;;;;;;;;;;4397464;32;317866;-82
2023/07/09 14:27:25;;;;;;;3.17;2.10;;;;;;;;;;4387456;32;318129;-82
2023/07/09 14:29:55;;;;;;;2.85;2.45;;;;;;;;;;4398583;32;317669;-82
2023/07/09 14:32:36;;;;;;;11.85;2.20;;;;;;;;;;4387303;32;317431;-83
2023/07/09 14:35:10;;;;;;;5.45;1.90;;;;;;;;;;4398430;32;318228;-82
2023/07/09 14:37:37;;;;;;;4.10;2.05;;;;;;;;;;4387906;32;317391;-82
2023/07/09 14:40:04;;;;;;;4.28;1.92;;;;;;;;;;4397334;32;317312;-82
2023/07/09 14:42:31;;;;;;;4.37;2.10;;;;;;;;;;4386518;32;342428;-82